sensor_id;sensor_type;location;lat;lon;timestamp;P1;durP1;ratioP1;P2;durP2;ratioP2
45548;SDS011;31270;48.328;10.096;2022-09-13T00:00:52;8.50;;;6.50;;
45548;SDS011;31270;48.328;10.096;2022-09-13T00:03:18;10.57;;;6.20;;
45548;SDS011;31270;48.328;10.096;2022-09-13T00:05:44;8.97;;;6.57;;
45548;SDS011;31270;48.328;10.096;2022-09-13T00:08:11;9.47;;;6.53;;
45548;SDS011;31270;48.328;10.096;2022-09-13T00:10:38;8.53;;;6.23;;
45548;SDS011;31270;48.328;10.096;2022-09-13T00:13:05;6.83;;;5.80;;
45548;SDS011;31270;48.328;10.096;2022-09-13T00:15:32;8.00;;;6.37;;
45548;SDS011;31270;48.328;10.096;2022-09-13T00:17:58;11.73;;;6.10;;
45548;SDS011;31270;48.328;10.096;2022-09-13T00:20:24;10.37;;;6.30;;
45548;SDS011;31270;48.328;10.096;2022-09-13T00:22:50;9.93;;;6.73;;
45548;SDS011;31270;48.328;10.096;2022-09-13T00:25:16;8.90;;;6.10;;
45548;SDS011;31270;48.328;10.096;2022-09-13T00:27:42;8.83;;;6.27;;
45548;SDS011;31270;48.328;10.096;2022-09-13T00:30:09;6.70;;;5.97;;
45548;SDS011;31270;48.328;10.096;2022-09-13T00:32:36;8.97;;;5.67;;
45548;SDS011;31270;48.328;10.096;2022-09-13T00:35:03;6.03;;;5.30;;
45548;SDS011;31270;48.328;10.096;2022-09-13T00:37:30;8.33;;;5.43;;
45548;SDS011;31270;48.328;10.096;2022-09-13T00:39:58;7.77;;;5.93;;
45548;SDS011;31270;48.328;10.096;2022-09-13T00:42:25;6.00;;;5.37;;
45548;SDS011;31270;48.328;10.096;2022-09-13T00:44:54;8.47;;;5.73;;
45548;SDS011;31270;48.328;10.096;2022-09-13T00:49:52;7.97;;;5.57;;
45548;SDS011;31270;48.328;10.096;2022-09-13T00:52:38;7.87;;;5.80;;
45548;SDS011;31270;48.328;10.096;2022-09-13T00:55:11;8.53;;;5.53;;
45548;SDS011;31270;48.328;10.096;2022-09-13T00:57:46;8.10;;;5.77;;
45548;SDS011;31270;48.328;10.096;2022-09-13T01:00:16;7.67;;;5.60;;
45548;SDS011;31270;48.328;10.096;2022-09-13T01:02:46;7.57;;;5.47;;
45548;SDS011;31270;48.328;10.096;2022-09-13T01:05:17;7.03;;;5.40;;
45548;SDS011;31270;48.328;10.096;2022-09-13T01:07:47;7.60;;;6.00;;
45548;SDS011;31270;48.328;10.096;2022-09-13T01:10:14;6.70;;;5.23;;
45548;SDS011;31270;48.328;10.096;2022-09-13T01:12:41;7.93;;;5.90;;
45548;SDS011;31270;48.328;10.096;2022-09-13T01:15:20;7.87;;;5.70;;
45548;SDS011;31270;48.328;10.096;2022-09-13T01:17:46;8.13;;;5.83;;
45548;SDS011;31270;48.328;10.096;2022-09-13T01:20:13;10.37;;;6.37;;
45548;SDS011;31270;48.328;10.096;2022-09-13T01:34:08;11.17;;;6.70;;
45548;SDS011;31270;48.328;10.096;2022-09-13T01:37:02;11.27;;;6.53;;
45548;SDS011;31270;48.328;10.096;2022-09-13T01:39:44;11.07;;;6.80;;
45548;SDS011;31270;48.328;10.096;2022-09-13T01:47:51;9.73;;;6.67;;
45548;SDS011;31270;48.328;10.096;2022-09-13T01:50:20;8.20;;;6.27;;
45548;SDS011;31270;48.328;10.096;2022-09-13T01:55:42;8.03;;;6.27;;
45548;SDS011;31270;48.328;10.096;2022-09-13T01:58:36;7.93;;;6.90;;
45548;SDS011;31270;48.328;10.096;2022-09-13T02:01:10;7.90;;;7.03;;
45548;SDS011;31270;48.328;10.096;2022-09-13T02:03:51;9.77;;;6.67;;
45548;SDS011;31270;48.328;10.096;2022-09-13T02:06:40;8.63;;;6.67;;
45548;SDS011;31270;48.328;10.096;2022-09-13T02:09:17;8.53;;;6.73;;
45548;SDS011;31270;48.328;10.096;2022-09-13T02:11:48;8.17;;;6.80;;
45548;SDS011;31270;48.328;10.096;2022-09-13T02:14:20;9.50;;;7.10;;
45548;SDS011;31270;48.328;10.096;2022-09-13T02:17:01;6.80;;;6.10;;
45548;SDS011;31270;48.328;10.096;2022-09-13T02:19:39;7.83;;;6.60;;
45548;SDS011;31270;48.328;10.096;2022-09-13T02:22:10;8.27;;;6.00;;
45548;SDS011;31270;48.328;10.096;2022-09-13T02:24:40;7.17;;;5.90;;
45548;SDS011;31270;48.328;10.096;2022-09-13T02:27:11;9.03;;;6.23;;
45548;SDS011;31270;48.328;10.096;2022-09-13T02:29:41;8.77;;;6.57;;
45548;SDS011;31270;48.328;10.096;2022-09-13T02:32:13;10.00;;;6.57;;
45548;SDS011;31270;48.328;10.096;2022-09-13T02:35:04;8.13;;;6.23;;
45548;SDS011;31270;48.328;10.096;2022-09-13T02:37:38;9.03;;;6.30;;
45548;SDS011;31270;48.328;10.096;2022-09-13T02:40:08;7.50;;;6.60;;
45548;SDS011;31270;48.328;10.096;2022-09-13T02:42:53;8.70;;;6.43;;
45548;SDS011;31270;48.328;10.096;2022-09-13T02:45:28;7.17;;;6.37;;
45548;SDS011;31270;48.328;10.096;2022-09-13T02:47:59;6.87;;;5.83;;
45548;SDS011;31270;48.328;10.096;2022-09-13T02:50:35;9.53;;;6.77;;
45548;SDS011;31270;48.328;10.096;2022-09-13T02:56:02;9.10;;;7.07;;
45548;SDS011;31270;48.328;10.096;2022-09-13T02:58:57;10.07;;;7.17;;
45548;SDS011;31270;48.328;10.096;2022-09-13T03:01:24;11.53;;;7.37;;
45548;SDS011;31270;48.328;10.096;2022-09-13T03:03:51;13.00;;;8.03;;
45548;SDS011;31270;48.328;10.096;2022-09-13T03:06:27;9.77;;;7.37;;
45548;SDS011;31270;48.328;10.096;2022-09-13T03:08:53;11.63;;;7.47;;
45548;SDS011;31270;48.328;10.096;2022-09-13T03:16:52;10.43;;;7.23;;
45548;SDS011;31270;48.328;10.096;2022-09-13T03:24:51;9.80;;;7.93;;
45548;SDS011;31270;48.328;10.096;2022-09-13T03:30:03;12.67;;;7.57;;
45548;SDS011;31270;48.328;10.096;2022-09-13T03:32:43;10.70;;;7.57;;
45548;SDS011;31270;48.328;10.096;2022-09-13T03:35:37;15.20;;;8.20;;
45548;SDS011;31270;48.328;10.096;2022-09-13T03:38:11;13.73;;;7.97;;
45548;SDS011;31270;48.328;10.096;2022-09-13T03:40:46;12.87;;;9.10;;
45548;SDS011;31270;48.328;10.096;2022-09-13T03:44:16;12.37;;;9.00;;
45548;SDS011;31270;48.328;10.096;2022-09-13T03:46:16;14.00;;;9.23;;
45548;SDS011;31270;48.328;10.096;2022-09-13T03:48:46;12.33;;;8.93;;
45548;SDS011;31270;48.328;10.096;2022-09-13T03:51:14;13.73;;;8.90;;
45548;SDS011;31270;48.328;10.096;2022-09-13T03:53:47;13.07;;;9.07;;
45548;SDS011;31270;48.328;10.096;2022-09-13T03:56:17;14.17;;;9.67;;
45548;SDS011;31270;48.328;10.096;2022-09-13T03:58:47;13.53;;;9.50;;
45548;SDS011;31270;48.328;10.096;2022-09-13T04:01:15;14.60;;;10.07;;
45548;SDS011;31270;48.328;10.096;2022-09-13T04:03:44;11.30;;;9.37;;
45548;SDS011;31270;48.328;10.096;2022-09-13T04:06:10;16.40;;;9.80;;
45548;SDS011;31270;48.328;10.096;2022-09-13T04:08:35;12.23;;;8.67;;
45548;SDS011;31270;48.328;10.096;2022-09-13T04:11:01;12.07;;;8.73;;
45548;SDS011;31270;48.328;10.096;2022-09-13T04:13:27;10.97;;;8.27;;
45548;SDS011;31270;48.328;10.096;2022-09-13T04:15:53;13.13;;;8.83;;
45548;SDS011;31270;48.328;10.096;2022-09-13T04:18:19;11.37;;;8.87;;
45548;SDS011;31270;48.328;10.096;2022-09-13T04:20:51;10.53;;;8.50;;
45548;SDS011;31270;48.328;10.096;2022-09-13T04:23:21;13.57;;;9.13;;
45548;SDS011;31270;48.328;10.096;2022-09-13T04:25:48;12.00;;;9.73;;
45548;SDS011;31270;48.328;10.096;2022-09-13T04:28:15;12.90;;;8.60;;
45548;SDS011;31270;48.328;10.096;2022-09-13T04:30:44;12.53;;;9.60;;
45548;SDS011;31270;48.328;10.096;2022-09-13T04:33:12;12.83;;;9.27;;
45548;SDS011;31270;48.328;10.096;2022-09-13T04:35:38;15.53;;;9.50;;
45548;SDS011;31270;48.328;10.096;2022-09-13T04:38:05;9.83;;;8.83;;
45548;SDS011;31270;48.328;10.096;2022-09-13T04:40:31;11.63;;;9.60;;
45548;SDS011;31270;48.328;10.096;2022-09-13T04:42:59;9.93;;;8.87;;
45548;SDS011;31270;48.328;10.096;2022-09-13T04:45:25;10.63;;;8.77;;
45548;SDS011;31270;48.328;10.096;2022-09-13T04:47:52;13.23;;;9.13;;
45548;SDS011;31270;48.328;10.096;2022-09-13T04:50:20;13.20;;;9.33;;
45548;SDS011;31270;48.328;10.096;2022-09-13T04:52:46;14.70;;;9.77;;
45548;SDS011;31270;48.328;10.096;2022-09-13T04:55:12;12.73;;;9.03;;
45548;SDS011;31270;48.328;10.096;2022-09-13T04:57:38;11.03;;;8.90;;
45548;SDS011;31270;48.328;10.096;2022-09-13T05:00:05;12.33;;;9.73;;
45548;SDS011;31270;48.328;10.096;2022-09-13T05:02:32;13.73;;;9.00;;
45548;SDS011;31270;48.328;10.096;2022-09-13T05:04:58;16.37;;;9.80;;
45548;SDS011;31270;48.328;10.096;2022-09-13T05:07:23;14.40;;;10.07;;
45548;SDS011;31270;48.328;10.096;2022-09-13T05:09:49;13.57;;;9.23;;
45548;SDS011;31270;48.328;10.096;2022-09-13T05:12:14;13.87;;;10.07;;
45548;SDS011;31270;48.328;10.096;2022-09-13T05:14:40;14.33;;;10.33;;
45548;SDS011;31270;48.328;10.096;2022-09-13T05:17:06;13.70;;;10.33;;
45548;SDS011;31270;48.328;10.096;2022-09-13T05:19:32;13.00;;;10.03;;
45548;SDS011;31270;48.328;10.096;2022-09-13T05:21:59;15.80;;;10.53;;
45548;SDS011;31270;48.328;10.096;2022-09-13T05:24:25;13.63;;;10.10;;
45548;SDS011;31270;48.328;10.096;2022-09-13T05:26:51;16.87;;;10.47;;
45548;SDS011;31270;48.328;10.096;2022-09-13T05:29:17;11.67;;;9.83;;
45548;SDS011;31270;48.328;10.096;2022-09-13T05:31:42;11.63;;;10.17;;
45548;SDS011;31270;48.328;10.096;2022-09-13T05:34:17;11.83;;;10.07;;
45548;SDS011;31270;48.328;10.096;2022-09-13T05:36:43;12.30;;;9.50;;
45548;SDS011;31270;48.328;10.096;2022-09-13T05:39:13;15.17;;;11.00;;
45548;SDS011;31270;48.328;10.096;2022-09-13T05:41:42;14.77;;;10.03;;
45548;SDS011;31270;48.328;10.096;2022-09-13T05:44:08;13.20;;;9.77;;
45548;SDS011;31270;48.328;10.096;2022-09-13T05:46:34;14.23;;;9.23;;
45548;SDS011;31270;48.328;10.096;2022-09-13T05:48:59;10.87;;;9.20;;
45548;SDS011;31270;48.328;10.096;2022-09-13T05:51:25;13.97;;;9.83;;
45548;SDS011;31270;48.328;10.096;2022-09-13T05:53:52;15.63;;;10.53;;
45548;SDS011;31270;48.328;10.096;2022-09-13T05:56:28;16.60;;;10.17;;
45548;SDS011;31270;48.328;10.096;2022-09-13T05:58:55;14.53;;;10.03;;
45548;SDS011;31270;48.328;10.096;2022-09-13T06:01:22;14.47;;;9.77;;
45548;SDS011;31270;48.328;10.096;2022-09-13T06:03:49;16.43;;;10.30;;
45548;SDS011;31270;48.328;10.096;2022-09-13T06:06:16;13.23;;;10.30;;
45548;SDS011;31270;48.328;10.096;2022-09-13T06:08:43;16.53;;;10.57;;
45548;SDS011;31270;48.328;10.096;2022-09-13T06:11:10;13.43;;;10.30;;
45548;SDS011;31270;48.328;10.096;2022-09-13T06:13:37;12.30;;;10.23;;
45548;SDS011;31270;48.328;10.096;2022-09-13T06:16:04;15.43;;;10.17;;
45548;SDS011;31270;48.328;10.096;2022-09-13T06:18:32;10.23;;;8.27;;
45548;SDS011;31270;48.328;10.096;2022-09-13T06:20:59;9.43;;;7.80;;
45548;SDS011;31270;48.328;10.096;2022-09-13T06:23:32;8.57;;;7.03;;
45548;SDS011;31270;48.328;10.096;2022-09-13T06:26:02;10.27;;;6.80;;
45548;SDS011;31270;48.328;10.096;2022-09-13T06:28:29;8.60;;;6.30;;
45548;SDS011;31270;48.328;10.096;2022-09-13T06:30:59;10.93;;;6.70;;
45548;SDS011;31270;48.328;10.096;2022-09-13T06:33:30;10.17;;;6.77;;
45548;SDS011;31270;48.328;10.096;2022-09-13T06:36:01;8.67;;;5.97;;
45548;SDS011;31270;48.328;10.096;2022-09-13T06:38:28;9.50;;;6.37;;
45548;SDS011;31270;48.328;10.096;2022-09-13T06:41:04;8.23;;;6.30;;
45548;SDS011;31270;48.328;10.096;2022-09-13T06:43:32;11.00;;;6.40;;
45548;SDS011;31270;48.328;10.096;2022-09-13T06:46:02;7.40;;;6.57;;
45548;SDS011;31270;48.328;10.096;2022-09-13T06:48:34;8.33;;;6.20;;
45548;SDS011;31270;48.328;10.096;2022-09-13T06:51:02;8.47;;;6.30;;
45548;SDS011;31270;48.328;10.096;2022-09-13T06:53:29;7.50;;;6.23;;
45548;SDS011;31270;48.328;10.096;2022-09-13T06:58:41;7.00;;;6.17;;
45548;SDS011;31270;48.328;10.096;2022-09-13T07:03:51;8.10;;;7.23;;
45548;SDS011;31270;48.328;10.096;2022-09-13T07:06:20;10.83;;;6.97;;
45548;SDS011;31270;48.328;10.096;2022-09-13T07:08:49;8.37;;;7.47;;
45548;SDS011;31270;48.328;10.096;2022-09-13T07:11:16;8.45;;;6.63;;
45548;SDS011;31270;48.328;10.096;2022-09-13T07:13:47;8.90;;;6.78;;
45548;SDS011;31270;48.328;10.096;2022-09-13T07:16:17;9.32;;;6.97;;
45548;SDS011;31270;48.328;10.096;2022-09-13T07:18:49;8.95;;;6.38;;
45548;SDS011;31270;48.328;10.096;2022-09-13T07:21:16;7.05;;;6.03;;
45548;SDS011;31270;48.328;10.096;2022-09-13T07:23:42;9.80;;;5.65;;
45548;SDS011;31270;48.328;10.096;2022-09-13T07:26:08;13.48;;;5.57;;
45548;SDS011;31270;48.328;10.096;2022-09-13T07:28:38;6.43;;;5.72;;
45548;SDS011;31270;48.328;10.096;2022-09-13T07:31:18;7.40;;;5.65;;
45548;SDS011;31270;48.328;10.096;2022-09-13T07:33:52;6.30;;;5.70;;
45548;SDS011;31270;48.328;10.096;2022-09-13T07:36:20;6.70;;;5.78;;
45548;SDS011;31270;48.328;10.096;2022-09-13T07:38:46;7.18;;;5.53;;
45548;SDS011;31270;48.328;10.096;2022-09-13T07:41:15;6.68;;;5.38;;
45548;SDS011;31270;48.328;10.096;2022-09-13T07:43:43;6.05;;;5.40;;
45548;SDS011;31270;48.328;10.096;2022-09-13T07:48:37;7.05;;;5.32;;
45548;SDS011;31270;48.328;10.096;2022-09-13T07:51:05;5.75;;;5.25;;
45548;SDS011;31270;48.328;10.096;2022-09-13T07:53:34;7.03;;;4.88;;
45548;SDS011;31270;48.328;10.096;2022-09-13T07:56:02;5.75;;;4.75;;
45548;SDS011;31270;48.328;10.096;2022-09-13T07:58:29;6.25;;;4.47;;
45548;SDS011;31270;48.328;10.096;2022-09-13T08:03:35;4.90;;;4.18;;
45548;SDS011;31270;48.328;10.096;2022-09-13T08:06:02;5.80;;;3.97;;
45548;SDS011;31270;48.328;10.096;2022-09-13T08:08:28;5.60;;;4.07;;
45548;SDS011;31270;48.328;10.096;2022-09-13T08:10:55;6.45;;;4.05;;
45548;SDS011;31270;48.328;10.096;2022-09-13T08:13:21;10.07;;;4.20;;
45548;SDS011;31270;48.328;10.096;2022-09-13T08:15:47;5.10;;;3.78;;
45548;SDS011;31270;48.328;10.096;2022-09-13T08:18:16;5.72;;;3.80;;
45548;SDS011;31270;48.328;10.096;2022-09-13T08:20:43;6.20;;;4.00;;
45548;SDS011;31270;48.328;10.096;2022-09-13T08:23:09;5.85;;;3.55;;
45548;SDS011;31270;48.328;10.096;2022-09-13T08:25:36;5.75;;;4.10;;
45548;SDS011;31270;48.328;10.096;2022-09-13T08:28:09;5.10;;;4.43;;
45548;SDS011;31270;48.328;10.096;2022-09-13T08:30:39;6.80;;;4.03;;
45548;SDS011;31270;48.328;10.096;2022-09-13T08:33:07;6.82;;;3.58;;
45548;SDS011;31270;48.328;10.096;2022-09-13T08:35:34;4.22;;;3.28;;
45548;SDS011;31270;48.328;10.096;2022-09-13T08:38:00;6.90;;;4.43;;
45548;SDS011;31270;48.328;10.096;2022-09-13T08:40:42;5.80;;;4.28;;
45548;SDS011;31270;48.328;10.096;2022-09-13T08:46:16;5.55;;;3.58;;
45548;SDS011;31270;48.328;10.096;2022-09-13T08:48:49;6.22;;;3.60;;
45548;SDS011;31270;48.328;10.096;2022-09-13T08:51:22;4.20;;;3.55;;
45548;SDS011;31270;48.328;10.096;2022-09-13T08:53:58;7.28;;;3.13;;
45548;SDS011;31270;48.328;10.096;2022-09-13T08:56:34;3.53;;;3.22;;
45548;SDS011;31270;48.328;10.096;2022-09-13T09:02:06;4.35;;;3.50;;
45548;SDS011;31270;48.328;10.096;2022-09-13T09:07:58;3.90;;;3.47;;
45548;SDS011;31270;48.328;10.096;2022-09-13T09:10:27;8.00;;;3.15;;
45548;SDS011;31270;48.328;10.096;2022-09-13T09:13:46;3.60;;;3.08;;
45548;SDS011;31270;48.328;10.096;2022-09-13T09:15:55;4.55;;;3.22;;
45548;SDS011;31270;48.328;10.096;2022-09-13T09:18:41;3.83;;;2.90;;
45548;SDS011;31270;48.328;10.096;2022-09-13T09:21:11;7.07;;;2.70;;
45548;SDS011;31270;48.328;10.096;2022-09-13T09:23:52;3.53;;;2.83;;
45548;SDS011;31270;48.328;10.096;2022-09-13T09:26:23;8.55;;;3.17;;
45548;SDS011;31270;48.328;10.096;2022-09-13T09:31:26;3.92;;;2.50;;
45548;SDS011;31270;48.328;10.096;2022-09-13T09:36:53;10.23;;;3.08;;
45548;SDS011;31270;48.328;10.096;2022-09-13T09:39:26;3.45;;;2.50;;
45548;SDS011;31270;48.328;10.096;2022-09-13T09:41:57;4.90;;;2.20;;
45548;SDS011;31270;48.328;10.096;2022-09-13T09:44:27;2.70;;;2.17;;
45548;SDS011;31270;48.328;10.096;2022-09-13T09:49:34;2.50;;;2.30;;
45548;SDS011;31270;48.328;10.096;2022-09-13T09:52:28;6.03;;;2.47;;
45548;SDS011;31270;48.328;10.096;2022-09-13T09:55:00;4.45;;;2.45;;
45548;SDS011;31270;48.328;10.096;2022-09-13T09:57:54;2.65;;;2.45;;
45548;SDS011;31270;48.328;10.096;2022-09-13T10:00:27;3.10;;;2.40;;
45548;SDS011;31270;48.328;10.096;2022-09-13T10:02:58;2.70;;;2.50;;
45548;SDS011;31270;48.328;10.096;2022-09-13T10:05:33;2.78;;;2.10;;
45548;SDS011;31270;48.328;10.096;2022-09-13T10:08:00;2.58;;;2.15;;
45548;SDS011;31270;48.328;10.096;2022-09-13T10:13:16;2.42;;;2.22;;
45548;SDS011;31270;48.328;10.096;2022-09-13T10:15:52;3.05;;;2.70;;
45548;SDS011;31270;48.328;10.096;2022-09-13T10:18:20;2.33;;;2.13;;
45548;SDS011;31270;48.328;10.096;2022-09-13T10:21:03;3.75;;;2.35;;
45548;SDS011;31270;48.328;10.096;2022-09-13T10:23:32;3.58;;;2.17;;
45548;SDS011;31270;48.328;10.096;2022-09-13T10:28:34;2.88;;;1.90;;
45548;SDS011;31270;48.328;10.096;2022-09-13T10:31:06;4.05;;;1.90;;
45548;SDS011;31270;48.328;10.096;2022-09-13T10:33:38;3.20;;;2.20;;
45548;SDS011;31270;48.328;10.096;2022-09-13T10:36:13;5.65;;;2.35;;
45548;SDS011;31270;48.328;10.096;2022-09-13T10:38:44;5.10;;;2.25;;
45548;SDS011;31270;48.328;10.096;2022-09-13T10:41:29;3.25;;;2.05;;
45548;SDS011;31270;48.328;10.096;2022-09-13T10:44:03;4.93;;;2.00;;
45548;SDS011;31270;48.328;10.096;2022-09-13T10:46:35;2.92;;;2.10;;
45548;SDS011;31270;48.328;10.096;2022-09-13T10:49:04;4.25;;;2.17;;
45548;SDS011;31270;48.328;10.096;2022-09-13T10:51:34;3.40;;;1.88;;
45548;SDS011;31270;48.328;10.096;2022-09-13T10:56:57;1.98;;;1.77;;
45548;SDS011;31270;48.328;10.096;2022-09-13T10:59:25;2.50;;;2.05;;
45548;SDS011;31270;48.328;10.096;2022-09-13T11:02:01;2.30;;;2.10;;
45548;SDS011;31270;48.328;10.096;2022-09-13T11:05:00;5.88;;;2.00;;
45548;SDS011;31270;48.328;10.096;2022-09-13T11:18:47;2.17;;;1.95;;
45548;SDS011;31270;48.328;10.096;2022-09-13T11:21:47;2.55;;;1.90;;
45548;SDS011;31270;48.328;10.096;2022-09-13T11:46:50;3.63;;;1.90;;
45548;SDS011;31270;48.328;10.096;2022-09-13T11:57:49;1.98;;;1.50;;
45548;SDS011;31270;48.328;10.096;2022-09-13T12:00:40;2.53;;;1.60;;
45548;SDS011;31270;48.328;10.096;2022-09-13T12:03:18;1.90;;;1.60;;
45548;SDS011;31270;48.328;10.096;2022-09-13T12:05:55;1.40;;;1.30;;
45548;SDS011;31270;48.328;10.096;2022-09-13T12:08:26;4.78;;;1.60;;
45548;SDS011;31270;48.328;10.096;2022-09-13T12:10:56;4.00;;;1.65;;
45548;SDS011;31270;48.328;10.096;2022-09-13T12:13:34;3.72;;;1.40;;
45548;SDS011;31270;48.328;10.096;2022-09-13T12:16:06;2.90;;;1.30;;
45548;SDS011;31270;48.328;10.096;2022-09-13T12:18:37;4.85;;;1.60;;
45548;SDS011;31270;48.328;10.096;2022-09-13T12:21:09;2.15;;;1.50;;
45548;SDS011;31270;48.328;10.096;2022-09-13T12:23:38;2.03;;;1.40;;
45548;SDS011;31270;48.328;10.096;2022-09-13T12:26:23;2.05;;;1.40;;
45548;SDS011;31270;48.328;10.096;2022-09-13T12:28:56;2.65;;;1.58;;
45548;SDS011;31270;48.328;10.096;2022-09-13T12:31:26;1.30;;;1.20;;
45548;SDS011;31270;48.328;10.096;2022-09-13T12:33:53;3.85;;;1.63;;
45548;SDS011;31270;48.328;10.096;2022-09-13T12:39:32;1.55;;;1.30;;
45548;SDS011;31270;48.328;10.096;2022-09-13T12:42:09;2.40;;;1.33;;
45548;SDS011;31270;48.328;10.096;2022-09-13T12:47:46;1.67;;;1.00;;
45548;SDS011;31270;48.328;10.096;2022-09-13T12:50:30;1.23;;;1.13;;
45548;SDS011;31270;48.328;10.096;2022-09-13T12:53:24;3.60;;;1.35;;
45548;SDS011;31270;48.328;10.096;2022-09-13T12:56:16;2.83;;;1.33;;
45548;SDS011;31270;48.328;10.096;2022-09-13T13:01:33;2.03;;;1.38;;
45548;SDS011;31270;48.328;10.096;2022-09-13T13:04:16;2.00;;;1.00;;
45548;SDS011;31270;48.328;10.096;2022-09-13T13:06:50;2.20;;;1.15;;
45548;SDS011;31270;48.328;10.096;2022-09-13T13:12:31;1.45;;;1.20;;
45548;SDS011;31270;48.328;10.096;2022-09-13T13:15:01;1.23;;;1.00;;
45548;SDS011;31270;48.328;10.096;2022-09-13T13:17:48;1.80;;;1.10;;
45548;SDS011;31270;48.328;10.096;2022-09-13T13:23:26;0.90;;;0.90;;
45548;SDS011;31270;48.328;10.096;2022-09-13T13:39:07;4.85;;;1.15;;
45548;SDS011;31270;48.328;10.096;2022-09-13T13:41:38;2.80;;;0.90;;
45548;SDS011;31270;48.328;10.096;2022-09-13T13:46:39;3.63;;;1.20;;
45548;SDS011;31270;48.328;10.096;2022-09-13T13:55:00;1.83;;;1.40;;
45548;SDS011;31270;48.328;10.096;2022-09-13T14:02:51;1.88;;;1.50;;
45548;SDS011;31270;48.328;10.096;2022-09-13T14:08:40;1.40;;;1.30;;
45548;SDS011;31270;48.328;10.096;2022-09-13T14:11:22;2.65;;;1.27;;
45548;SDS011;31270;48.328;10.096;2022-09-13T14:19:54;2.38;;;1.20;;
45548;SDS011;31270;48.328;10.096;2022-09-13T14:22:25;2.08;;;1.40;;
45548;SDS011;31270;48.328;10.096;2022-09-13T14:25:25;5.05;;;1.40;;
45548;SDS011;31270;48.328;10.096;2022-09-13T14:27:45;2.47;;;1.40;;
45548;SDS011;31270;48.328;10.096;2022-09-13T14:30:19;1.77;;;1.40;;
45548;SDS011;31270;48.328;10.096;2022-09-13T14:32:48;3.15;;;1.58;;
45548;SDS011;31270;48.328;10.096;2022-09-13T14:38:11;4.75;;;1.40;;
45548;SDS011;31270;48.328;10.096;2022-09-13T14:40:37;1.65;;;1.23;;
45548;SDS011;31270;48.328;10.096;2022-09-13T14:43:13;1.60;;;1.38;;
45548;SDS011;31270;48.328;10.096;2022-09-13T14:45:40;6.82;;;1.40;;
45548;SDS011;31270;48.328;10.096;2022-09-13T14:48:11;4.03;;;1.48;;
45548;SDS011;31270;48.328;10.096;2022-09-13T14:50:40;1.88;;;1.55;;
45548;SDS011;31270;48.328;10.096;2022-09-13T14:53:15;3.05;;;1.40;;
45548;SDS011;31270;48.328;10.096;2022-09-13T14:55:48;2.90;;;1.23;;
45548;SDS011;31270;48.328;10.096;2022-09-13T15:01:07;4.50;;;1.42;;
45548;SDS011;31270;48.328;10.096;2022-09-13T15:03:35;6.57;;;1.23;;
45548;SDS011;31270;48.328;10.096;2022-09-13T15:06:04;9.25;;;1.40;;
45548;SDS011;31270;48.328;10.096;2022-09-13T15:10:59;4.10;;;1.50;;
45548;SDS011;31270;48.328;10.096;2022-09-13T15:13:30;1.75;;;1.20;;
45548;SDS011;31270;48.328;10.096;2022-09-13T15:15:57;5.22;;;1.48;;
45548;SDS011;31270;48.328;10.096;2022-09-13T15:18:29;4.15;;;1.40;;
45548;SDS011;31270;48.328;10.096;2022-09-13T15:20:57;3.90;;;1.50;;
45548;SDS011;31270;48.328;10.096;2022-09-13T15:26:20;3.08;;;1.55;;
45548;SDS011;31270;48.328;10.096;2022-09-13T15:28:49;2.03;;;1.42;;
45548;SDS011;31270;48.328;10.096;2022-09-13T15:31:22;3.00;;;1.10;;
45548;SDS011;31270;48.328;10.096;2022-09-13T15:34:09;2.03;;;1.30;;
45548;SDS011;31270;48.328;10.096;2022-09-13T15:36:40;3.20;;;1.58;;
45548;SDS011;31270;48.328;10.096;2022-09-13T15:41:49;2.10;;;1.30;;
45548;SDS011;31270;48.328;10.096;2022-09-13T15:44:19;1.33;;;1.23;;
45548;SDS011;31270;48.328;10.096;2022-09-13T15:46:47;1.73;;;1.38;;
45548;SDS011;31270;48.328;10.096;2022-09-13T15:49:16;2.50;;;1.45;;
45548;SDS011;31270;48.328;10.096;2022-09-13T15:51:44;3.40;;;1.30;;
45548;SDS011;31270;48.328;10.096;2022-09-13T15:54:15;1.58;;;1.30;;
45548;SDS011;31270;48.328;10.096;2022-09-13T15:56:43;2.78;;;1.48;;
45548;SDS011;31270;48.328;10.096;2022-09-13T15:59:16;2.40;;;1.20;;
45548;SDS011;31270;48.328;10.096;2022-09-13T16:01:49;2.53;;;1.27;;
45548;SDS011;31270;48.328;10.096;2022-09-13T16:04:16;3.42;;;1.30;;
45548;SDS011;31270;48.328;10.096;2022-09-13T16:06:41;1.90;;;1.30;;
45548;SDS011;31270;48.328;10.096;2022-09-13T16:09:15;3.33;;;1.55;;
45548;SDS011;31270;48.328;10.096;2022-09-13T16:11:44;6.57;;;1.60;;
45548;SDS011;31270;48.328;10.096;2022-09-13T16:14:10;3.85;;;1.48;;
45548;SDS011;31270;48.328;10.096;2022-09-13T16:16:36;1.67;;;1.35;;
45548;SDS011;31270;48.328;10.096;2022-09-13T16:19:02;3.63;;;1.40;;
45548;SDS011;31270;48.328;10.096;2022-09-13T16:21:28;4.68;;;1.55;;
45548;SDS011;31270;48.328;10.096;2022-09-13T16:23:54;3.92;;;1.48;;
45548;SDS011;31270;48.328;10.096;2022-09-13T16:26:20;2.25;;;1.35;;
45548;SDS011;31270;48.328;10.096;2022-09-13T16:28:46;5.22;;;1.50;;
45548;SDS011;31270;48.328;10.096;2022-09-13T16:31:11;2.53;;;1.50;;
45548;SDS011;31270;48.328;10.096;2022-09-13T16:33:39;6.43;;;1.75;;
45548;SDS011;31270;48.328;10.096;2022-09-13T16:36:04;3.08;;;1.73;;
45548;SDS011;31270;48.328;10.096;2022-09-13T16:38:30;5.28;;;1.70;;
45548;SDS011;31270;48.328;10.096;2022-09-13T16:40:56;5.13;;;1.65;;
45548;SDS011;31270;48.328;10.096;2022-09-13T16:43:21;7.22;;;1.60;;
45548;SDS011;31270;48.328;10.096;2022-09-13T16:45:47;4.22;;;2.05;;
45548;SDS011;31270;48.328;10.096;2022-09-13T16:48:15;4.10;;;1.73;;
45548;SDS011;31270;48.328;10.096;2022-09-13T16:50:40;7.25;;;1.75;;
45548;SDS011;31270;48.328;10.096;2022-09-13T16:53:06;7.18;;;1.90;;
45548;SDS011;31270;48.328;10.096;2022-09-13T16:55:32;3.53;;;1.75;;
45548;SDS011;31270;48.328;10.096;2022-09-13T16:57:58;4.53;;;1.65;;
45548;SDS011;31270;48.328;10.096;2022-09-13T17:00:24;3.58;;;1.98;;
45548;SDS011;31270;48.328;10.096;2022-09-13T17:02:52;2.80;;;1.92;;
45548;SDS011;31270;48.328;10.096;2022-09-13T17:05:19;2.22;;;2.13;;
45548;SDS011;31270;48.328;10.096;2022-09-13T17:07:46;2.50;;;2.10;;
45548;SDS011;31270;48.328;10.096;2022-09-13T17:10:11;1.95;;;1.85;;
45548;SDS011;31270;48.328;10.096;2022-09-13T17:12:37;2.47;;;2.25;;
45548;SDS011;31270;48.328;10.096;2022-09-13T17:15:03;3.55;;;2.40;;
45548;SDS011;31270;48.328;10.096;2022-09-13T17:17:31;2.10;;;1.85;;
45548;SDS011;31270;48.328;10.096;2022-09-13T17:20:00;6.72;;;2.20;;
45548;SDS011;31270;48.328;10.096;2022-09-13T17:22:29;4.00;;;1.98;;
45548;SDS011;31270;48.328;10.096;2022-09-13T17:24:55;4.03;;;2.30;;
45548;SDS011;31270;48.328;10.096;2022-09-13T17:27:21;5.30;;;2.55;;
45548;SDS011;31270;48.328;10.096;2022-09-13T17:29:46;3.75;;;2.30;;
45548;SDS011;31270;48.328;10.096;2022-09-13T17:32:12;2.65;;;2.45;;
45548;SDS011;31270;48.328;10.096;2022-09-13T17:34:37;5.03;;;2.50;;
45548;SDS011;31270;48.328;10.096;2022-09-13T17:37:03;2.78;;;2.50;;
45548;SDS011;31270;48.328;10.096;2022-09-13T17:39:30;2.53;;;2.33;;
45548;SDS011;31270;48.328;10.096;2022-09-13T17:41:56;4.13;;;2.63;;
45548;SDS011;31270;48.328;10.096;2022-09-13T17:44:22;3.10;;;2.80;;
45548;SDS011;31270;48.328;10.096;2022-09-13T17:46:48;4.70;;;2.55;;
45548;SDS011;31270;48.328;10.096;2022-09-13T17:49:14;4.28;;;2.90;;
45548;SDS011;31270;48.328;10.096;2022-09-13T17:51:39;4.35;;;2.78;;
45548;SDS011;31270;48.328;10.096;2022-09-13T17:54:06;3.88;;;2.95;;